sensor_id;sensor_type;location;lat;lon;timestamp;pressure;altitude;pressure_sealevel;temperature;humidity
62059;BME280;48017;51.064;7.014;2022-07-09T00:01:28;102083.09;;;18.06;75.61
62059;BME280;48017;51.064;7.014;2022-07-09T00:03:54;102085.53;;;18.00;75.84
62059;BME280;48017;51.064;7.014;2022-07-09T00:06:20;102078.19;;;17.73;76.78
62059;BME280;48017;51.064;7.014;2022-07-09T00:08:45;102077.84;;;17.56;77.51
62059;BME280;48017;51.064;7.014;2022-07-09T00:11:11;102082.13;;;17.69;77.59
62059;BME280;48017;51.064;7.014;2022-07-09T00:13:36;102081.72;;;17.73;77.35
62059;BME280;48017;51.064;7.014;2022-07-09T00:16:01;102082.00;;;17.80;76.29
62059;BME280;48017;51.064;7.014;2022-07-09T00:18:27;102085.69;;;17.79;76.76
62059;BME280;48017;51.064;7.014;2022-07-09T00:20:55;102075.94;;;17.78;76.51
62059;BME280;48017;51.064;7.014;2022-07-09T00:23:21;102079.88;;;17.74;76.92
62059;BME280;48017;51.064;7.014;2022-07-09T00:25:46;102079.19;;;17.72;76.55
62059;BME280;48017;51.064;7.014;2022-07-09T00:28:11;102072.69;;;17.74;76.77
62059;BME280;48017;51.064;7.014;2022-07-09T00:30:37;102070.84;;;17.84;76.09
62059;BME280;48017;51.064;7.014;2022-07-09T00:33:02;102072.47;;;17.56;77.49
62059;BME280;48017;51.064;7.014;2022-07-09T00:35:28;102072.19;;;17.40;77.92
62059;BME280;48017;51.064;7.014;2022-07-09T00:37:53;102071.06;;;17.43;78.21
62059;BME280;48017;51.064;7.014;2022-07-09T00:40:19;102069.38;;;17.42;77.80
62059;BME280;48017;51.064;7.014;2022-07-09T00:42:44;102064.00;;;17.32;78.40
62059;BME280;48017;51.064;7.014;2022-07-09T00:45:09;102058.91;;;17.29;78.32
62059;BME280;48017;51.064;7.014;2022-07-09T00:47:35;102058.50;;;17.34;78.45
62059;BME280;48017;51.064;7.014;2022-07-09T00:50:00;102059.84;;;17.09;79.59
62059;BME280;48017;51.064;7.014;2022-07-09T00:52:27;102057.25;;;16.88;80.83
62059;BME280;48017;51.064;7.014;2022-07-09T00:54:52;102058.41;;;16.43;83.07
62059;BME280;48017;51.064;7.014;2022-07-09T00:57:19;102052.25;;;16.53;82.76
62059;BME280;48017;51.064;7.014;2022-07-09T00:59:45;102050.84;;;16.49;82.60
62059;BME280;48017;51.064;7.014;2022-07-09T01:02:10;102057.97;;;16.38;82.99
62059;BME280;48017;51.064;7.014;2022-07-09T01:04:36;102048.06;;;16.29;83.52
62059;BME280;48017;51.064;7.014;2022-07-09T01:07:03;102034.94;;;16.47;82.91
62059;BME280;48017;51.064;7.014;2022-07-09T01:09:28;102037.59;;;16.68;81.77
62059;BME280;48017;51.064;7.014;2022-07-09T01:11:55;102043.56;;;16.60;81.81
62059;BME280;48017;51.064;7.014;2022-07-09T01:14:20;102038.44;;;16.48;82.46
62059;BME280;48017;51.064;7.014;2022-07-09T01:16:46;102046.66;;;16.25;83.74
62059;BME280;48017;51.064;7.014;2022-07-09T01:19:11;102048.97;;;16.39;83.42
62059;BME280;48017;51.064;7.014;2022-07-09T01:21:37;102040.97;;;16.19;84.24
62059;BME280;48017;51.064;7.014;2022-07-09T01:24:02;102046.50;;;16.27;83.95
62059;BME280;48017;51.064;7.014;2022-07-09T01:26:28;102042.34;;;16.43;83.23
62059;BME280;48017;51.064;7.014;2022-07-09T01:28:53;102050.59;;;16.31;83.69
62059;BME280;48017;51.064;7.014;2022-07-09T01:31:19;102042.09;;;16.47;83.20
62059;BME280;48017;51.064;7.014;2022-07-09T01:33:45;102040.00;;;16.50;82.84
62059;BME280;48017;51.064;7.014;2022-07-09T01:36:10;102032.81;;;16.51;82.56
62059;BME280;48017;51.064;7.014;2022-07-09T01:38:36;102031.06;;;16.40;82.70
62059;BME280;48017;51.064;7.014;2022-07-09T01:41:02;102036.75;;;16.47;82.66
62059;BME280;48017;51.064;7.014;2022-07-09T01:43:28;102038.88;;;16.53;82.61
62059;BME280;48017;51.064;7.014;2022-07-09T01:45:53;102038.31;;;16.49;82.29
62059;BME280;48017;51.064;7.014;2022-07-09T01:48:18;102034.59;;;16.40;82.93
62059;BME280;48017;51.064;7.014;2022-07-09T01:50:44;102030.50;;;16.36;82.79
62059;BME280;48017;51.064;7.014;2022-07-09T01:53:09;102028.59;;;16.48;82.58
62059;BME280;48017;51.064;7.014;2022-07-09T01:55:35;102033.16;;;16.57;81.85
62059;BME280;48017;51.064;7.014;2022-07-09T01:58:00;102025.50;;;16.53;81.58
62059;BME280;48017;51.064;7.014;2022-07-09T02:00:26;102022.97;;;16.51;81.83
62059;BME280;48017;51.064;7.014;2022-07-09T02:02:53;102018.53;;;16.40;82.00
62059;BME280;48017;51.064;7.014;2022-07-09T02:05:19;102025.97;;;16.58;81.41
62059;BME280;48017;51.064;7.014;2022-07-09T02:07:45;102020.31;;;16.61;80.91
62059;BME280;48017;51.064;7.014;2022-07-09T02:10:10;102022.47;;;16.67;80.54
62059;BME280;48017;51.064;7.014;2022-07-09T02:12:35;102013.56;;;16.57;80.79
62059;BME280;48017;51.064;7.014;2022-07-09T02:15:01;102014.06;;;16.51;81.37
62059;BME280;48017;51.064;7.014;2022-07-09T02:17:26;102015.63;;;16.53;81.06
62059;BME280;48017;51.064;7.014;2022-07-09T02:19:51;102016.47;;;16.54;80.85
62059;BME280;48017;51.064;7.014;2022-07-09T02:22:17;102003.78;;;16.46;81.15
62059;BME280;48017;51.064;7.014;2022-07-09T02:24:42;102011.22;;;16.42;81.31
62059;BME280;48017;51.064;7.014;2022-07-09T02:27:08;102003.03;;;16.44;81.04
62059;BME280;48017;51.064;7.014;2022-07-09T02:29:34;102013.47;;;16.37;81.36
62059;BME280;48017;51.064;7.014;2022-07-09T02:31:59;102008.69;;;16.41;81.25
62059;BME280;48017;51.064;7.014;2022-07-09T02:34:25;102008.81;;;16.39;81.41
62059;BME280;48017;51.064;7.014;2022-07-09T02:36:51;102010.41;;;16.52;80.65
62059;BME280;48017;51.064;7.014;2022-07-09T02:39:17;102002.84;;;16.57;80.34
62059;BME280;48017;51.064;7.014;2022-07-09T02:41:43;101999.97;;;16.49;80.67
62059;BME280;48017;51.064;7.014;2022-07-09T02:44:08;101998.97;;;16.40;81.09
62059;BME280;48017;51.064;7.014;2022-07-09T02:46:34;102003.84;;;16.56;80.90
62059;BME280;48017;51.064;7.014;2022-07-09T02:48:59;101993.53;;;16.61;80.13
62059;BME280;48017;51.064;7.014;2022-07-09T02:51:25;101996.44;;;16.69;80.30
62059;BME280;48017;51.064;7.014;2022-07-09T02:53:50;101996.38;;;16.59;80.38
62059;BME280;48017;51.064;7.014;2022-07-09T02:56:15;101998.63;;;16.64;80.77
62059;BME280;48017;51.064;7.014;2022-07-09T02:58:41;101991.31;;;16.66;80.53
62059;BME280;48017;51.064;7.014;2022-07-09T03:01:06;101988.47;;;16.58;80.75
62059;BME280;48017;51.064;7.014;2022-07-09T03:03:33;101989.47;;;16.57;80.78
62059;BME280;48017;51.064;7.014;2022-07-09T03:06:01;101998.38;;;16.67;80.72
62059;BME280;48017;51.064;7.014;2022-07-09T03:08:28;101988.63;;;16.56;81.05
62059;BME280;48017;51.064;7.014;2022-07-09T03:10:53;101988.66;;;16.66;80.72
62059;BME280;48017;51.064;7.014;2022-07-09T03:13:19;101994.88;;;16.36;82.42
62059;BME280;48017;51.064;7.014;2022-07-09T03:15:45;101994.25;;;16.32;82.65
62059;BME280;48017;51.064;7.014;2022-07-09T03:18:10;101997.94;;;16.31;82.62
62059;BME280;48017;51.064;7.014;2022-07-09T03:20:36;101990.94;;;16.40;82.81
62059;BME280;48017;51.064;7.014;2022-07-09T03:23:05;101991.00;;;16.59;81.71
62059;BME280;48017;51.064;7.014;2022-07-09T03:25:31;101993.88;;;16.67;81.53
62059;BME280;48017;51.064;7.014;2022-07-09T03:27:56;101998.63;;;16.64;81.39
62059;BME280;48017;51.064;7.014;2022-07-09T03:30:22;101996.16;;;16.72;81.40
62059;BME280;48017;51.064;7.014;2022-07-09T03:32:48;101988.41;;;16.69;81.22
62059;BME280;48017;51.064;7.014;2022-07-09T03:35:14;101987.44;;;16.80;81.07
62059;BME280;48017;51.064;7.014;2022-07-09T03:37:39;101992.81;;;16.80;80.92
62059;BME280;48017;51.064;7.014;2022-07-09T03:40:05;101989.00;;;16.82;80.72
62059;BME280;48017;51.064;7.014;2022-07-09T03:42:31;101985.63;;;16.80;80.45
62059;BME280;48017;51.064;7.014;2022-07-09T03:44:57;101984.34;;;16.84;80.69
62059;BME280;48017;51.064;7.014;2022-07-09T03:47:22;101973.59;;;16.75;81.04
62059;BME280;48017;51.064;7.014;2022-07-09T03:49:48;101982.44;;;16.65;81.68
62059;BME280;48017;51.064;7.014;2022-07-09T03:52:14;101971.00;;;16.63;81.83
62059;BME280;48017;51.064;7.014;2022-07-09T03:54:39;101979.19;;;16.62;81.70
62059;BME280;48017;51.064;7.014;2022-07-09T03:57:05;101983.97;;;16.58;82.40
62059;BME280;48017;51.064;7.014;2022-07-09T03:59:30;101979.13;;;16.52;82.61
62059;BME280;48017;51.064;7.014;2022-07-09T04:01:56;101973.50;;;16.46;82.63
62059;BME280;48017;51.064;7.014;2022-07-09T04:04:21;101980.81;;;16.53;82.63
62059;BME280;48017;51.064;7.014;2022-07-09T04:06:46;101977.72;;;16.48;82.91
62059;BME280;48017;51.064;7.014;2022-07-09T04:09:12;101978.81;;;16.36;83.49
62059;BME280;48017;51.064;7.014;2022-07-09T04:11:37;101983.06;;;16.48;83.26
62059;BME280;48017;51.064;7.014;2022-07-09T04:14:03;101980.41;;;16.48;83.00
62059;BME280;48017;51.064;7.014;2022-07-09T04:16:28;101978.88;;;16.55;82.78
62059;BME280;48017;51.064;7.014;2022-07-09T04:18:54;101984.13;;;16.66;82.03
62059;BME280;48017;51.064;7.014;2022-07-09T04:21:20;101985.44;;;16.72;81.70
62059;BME280;48017;51.064;7.014;2022-07-09T04:23:49;101987.44;;;16.80;81.76
62059;BME280;48017;51.064;7.014;2022-07-09T04:26:15;101994.00;;;16.66;82.22
62059;BME280;48017;51.064;7.014;2022-07-09T04:28:40;101986.09;;;16.64;82.29
62059;BME280;48017;51.064;7.014;2022-07-09T04:31:06;101996.84;;;16.74;81.77
62059;BME280;48017;51.064;7.014;2022-07-09T04:33:31;101996.38;;;16.59;82.76
62059;BME280;48017;51.064;7.014;2022-07-09T04:35:57;101989.09;;;16.40;83.81
62059;BME280;48017;51.064;7.014;2022-07-09T04:38:22;101998.09;;;16.39;84.10
62059;BME280;48017;51.064;7.014;2022-07-09T04:40:48;101992.06;;;16.37;84.54
62059;BME280;48017;51.064;7.014;2022-07-09T04:43:14;101995.44;;;16.39;84.60
62059;BME280;48017;51.064;7.014;2022-07-09T04:45:39;101997.31;;;16.49;84.02
62059;BME280;48017;51.064;7.014;2022-07-09T04:48:04;102002.28;;;16.63;83.59
62059;BME280;48017;51.064;7.014;2022-07-09T04:50:30;102007.47;;;16.76;82.86
62059;BME280;48017;51.064;7.014;2022-07-09T04:52:55;101993.09;;;16.77;82.89
62059;BME280;48017;51.064;7.014;2022-07-09T04:55:21;101999.53;;;16.74;82.82
62059;BME280;48017;51.064;7.014;2022-07-09T04:57:47;101996.66;;;16.56;83.72
62059;BME280;48017;51.064;7.014;2022-07-09T05:00:13;101996.19;;;16.82;82.56
62059;BME280;48017;51.064;7.014;2022-07-09T05:02:41;101999.63;;;17.03;81.43
62059;BME280;48017;51.064;7.014;2022-07-09T05:05:07;101991.31;;;17.16;81.16
62059;BME280;48017;51.064;7.014;2022-07-09T05:07:33;101982.41;;;17.15;81.08
62059;BME280;48017;51.064;7.014;2022-07-09T05:09:59;101987.47;;;16.89;82.13
62059;BME280;48017;51.064;7.014;2022-07-09T05:12:29;101995.94;;;16.94;82.78
62059;BME280;48017;51.064;7.014;2022-07-09T05:14:54;101997.59;;;16.76;83.87
62059;BME280;48017;51.064;7.014;2022-07-09T05:17:21;101999.09;;;16.69;84.17
62059;BME280;48017;51.064;7.014;2022-07-09T05:19:47;101990.28;;;16.88;83.25
62059;BME280;48017;51.064;7.014;2022-07-09T05:22:13;101991.16;;;16.98;83.11
62059;BME280;48017;51.064;7.014;2022-07-09T05:24:38;101988.91;;;17.03;82.63
62059;BME280;48017;51.064;7.014;2022-07-09T05:27:04;101992.56;;;17.02;82.80
62059;BME280;48017;51.064;7.014;2022-07-09T05:29:29;101998.81;;;17.22;82.39
62059;BME280;48017;51.064;7.014;2022-07-09T05:31:55;101991.06;;;17.38;81.87
62059;BME280;48017;51.064;7.014;2022-07-09T05:34:23;101991.91;;;17.29;82.42
62059;BME280;48017;51.064;7.014;2022-07-09T05:36:51;101997.13;;;17.31;82.80
62059;BME280;48017;51.064;7.014;2022-07-09T05:39:17;101994.31;;;17.51;82.01
62059;BME280;48017;51.064;7.014;2022-07-09T05:41:43;101988.66;;;17.54;81.72
62059;BME280;48017;51.064;7.014;2022-07-09T05:44:09;101982.59;;;17.43;82.77
62059;BME280;48017;51.064;7.014;2022-07-09T05:46:35;101979.91;;;17.43;83.85
62059;BME280;48017;51.064;7.014;2022-07-09T05:49:01;101987.97;;;17.72;82.18
62059;BME280;48017;51.064;7.014;2022-07-09T05:51:27;101986.81;;;17.94;80.80
62059;BME280;48017;51.064;7.014;2022-07-09T05:53:52;101988.34;;;18.06;80.50
62059;BME280;48017;51.064;7.014;2022-07-09T05:56:17;101989.00;;;18.18;79.72
62059;BME280;48017;51.064;7.014;2022-07-09T05:58:43;102011.03;;;18.31;79.17
62059;BME280;48017;51.064;7.014;2022-07-09T06:01:09;102014.00;;;18.18;80.14
62059;BME280;48017;51.064;7.014;2022-07-09T06:03:34;102013.75;;;18.11;80.22
62059;BME280;48017;51.064;7.014;2022-07-09T06:06:00;102015.44;;;18.12;81.22
62059;BME280;48017;51.064;7.014;2022-07-09T06:08:26;102009.38;;;18.48;79.87
62059;BME280;48017;51.064;7.014;2022-07-09T06:10:52;102008.78;;;18.63;79.32
62059;BME280;48017;51.064;7.014;2022-07-09T06:13:17;102014.44;;;18.60;79.44
62059;BME280;48017;51.064;7.014;2022-07-09T06:15:43;102012.25;;;18.83;78.34
62059;BME280;48017;51.064;7.014;2022-07-09T06:18:08;102013.78;;;19.13;77.63
62059;BME280;48017;51.064;7.014;2022-07-09T06:20:34;102014.69;;;19.22;76.88
62059;BME280;48017;51.064;7.014;2022-07-09T06:22:59;102012.00;;;19.40;76.23
62059;BME280;48017;51.064;7.014;2022-07-09T06:25:25;101998.06;;;19.09;77.71
62059;BME280;48017;51.064;7.014;2022-07-09T06:27:50;102007.72;;;19.47;76.02
62059;BME280;48017;51.064;7.014;2022-07-09T06:30:16;101997.94;;;19.46;75.83
62059;BME280;48017;51.064;7.014;2022-07-09T06:32:41;101998.19;;;19.35;76.68
62059;BME280;48017;51.064;7.014;2022-07-09T06:35:07;101992.94;;;19.87;74.53
62059;BME280;48017;51.064;7.014;2022-07-09T06:37:32;101997.84;;;19.91;73.84
62059;BME280;48017;51.064;7.014;2022-07-09T06:39:57;101994.63;;;19.88;74.00
62059;BME280;48017;51.064;7.014;2022-07-09T06:42:25;101991.94;;;20.39;72.07
62059;BME280;48017;51.064;7.014;2022-07-09T06:44:50;101991.13;;;20.13;73.05
62059;BME280;48017;51.064;7.014;2022-07-09T06:47:16;101990.88;;;20.32;72.21
62059;BME280;48017;51.064;7.014;2022-07-09T06:49:42;101995.00;;;20.79;70.18
62059;BME280;48017;51.064;7.014;2022-07-09T06:52:07;101999.53;;;20.78;70.54
62059;BME280;48017;51.064;7.014;2022-07-09T06:54:33;101996.53;;;20.81;69.61
62059;BME280;48017;51.064;7.014;2022-07-09T06:56:59;101991.09;;;20.73;69.60
62059;BME280;48017;51.064;7.014;2022-07-09T06:59:25;101994.72;;;20.30;71.51
62059;BME280;48017;51.064;7.014;2022-07-09T07:01:50;101987.53;;;20.38;71.06
62059;BME280;48017;51.064;7.014;2022-07-09T07:04:16;101993.53;;;21.00;68.53
62059;BME280;48017;51.064;7.014;2022-07-09T07:06:42;101987.63;;;20.89;68.27
62059;BME280;48017;51.064;7.014;2022-07-09T07:09:08;101993.72;;;20.99;67.14
62059;BME280;48017;51.064;7.014;2022-07-09T07:11:34;101992.22;;;21.13;65.68
62059;BME280;48017;51.064;7.014;2022-07-09T07:13:59;102000.47;;;20.95;67.17
62059;BME280;48017;51.064;7.014;2022-07-09T07:16:25;101998.22;;;20.90;66.20
62059;BME280;48017;51.064;7.014;2022-07-09T07:18:50;102003.53;;;21.16;65.38
62059;BME280;48017;51.064;7.014;2022-07-09T07:21:15;101993.78;;;20.65;66.94
62059;BME280;48017;51.064;7.014;2022-07-09T07:23:41;102004.31;;;20.50;68.24
62059;BME280;48017;51.064;7.014;2022-07-09T07:26:06;101992.34;;;20.45;68.09
62059;BME280;48017;51.064;7.014;2022-07-09T07:28:33;101998.50;;;20.71;67.77
62059;BME280;48017;51.064;7.014;2022-07-09T07:30:58;101995.81;;;20.71;67.50
62059;BME280;48017;51.064;7.014;2022-07-09T07:33:24;101996.75;;;20.96;66.46
62059;BME280;48017;51.064;7.014;2022-07-09T07:35:49;101995.19;;;21.68;63.68
62059;BME280;48017;51.064;7.014;2022-07-09T07:38:15;101996.00;;;21.44;64.05
62059;BME280;48017;51.064;7.014;2022-07-09T07:40:40;101998.22;;;21.81;63.62
62059;BME280;48017;51.064;7.014;2022-07-09T07:43:09;101996.34;;;22.70;60.16
62059;BME280;48017;51.064;7.014;2022-07-09T07:45:35;102002.81;;;23.00;59.48
62059;BME280;48017;51.064;7.014;2022-07-09T07:48:01;102006.53;;;22.99;58.56
62059;BME280;48017;51.064;7.014;2022-07-09T07:50:26;101997.56;;;23.30;58.06
62059;BME280;48017;51.064;7.014;2022-07-09T07:52:52;101991.59;;;23.11;57.97
62059;BME280;48017;51.064;7.014;2022-07-09T07:55:18;101988.44;;;22.60;59.81
62059;BME280;48017;51.064;7.014;2022-07-09T07:57:43;101986.31;;;22.39;60.25
62059;BME280;48017;51.064;7.014;2022-07-09T08:00:09;101993.56;;;22.86;58.74
62059;BME280;48017;51.064;7.014;2022-07-09T08:02:34;101993.34;;;22.57;58.63
62059;BME280;48017;51.064;7.014;2022-07-09T08:05:00;101989.28;;;22.61;57.97
62059;BME280;48017;51.064;7.014;2022-07-09T08:07:26;102011.09;;;22.98;57.07
62059;BME280;48017;51.064;7.014;2022-07-09T08:09:52;102000.94;;;23.32;56.04
62059;BME280;48017;51.064;7.014;2022-07-09T08:12:17;101995.66;;;23.61;54.56
62059;BME280;48017;51.064;7.014;2022-07-09T08:14:43;101997.81;;;23.43;54.92
62059;BME280;48017;51.064;7.014;2022-07-09T08:17:08;101996.84;;;23.81;52.56
62059;BME280;48017;51.064;7.014;2022-07-09T08:19:33;101995.91;;;23.89;53.02
62059;BME280;48017;51.064;7.014;2022-07-09T08:21:59;101988.59;;;23.52;54.14
62059;BME280;48017;51.064;7.014;2022-07-09T08:24:24;101985.75;;;22.60;56.92
62059;BME280;48017;51.064;7.014;2022-07-09T08:26:50;101991.75;;;22.79;56.58
62059;BME280;48017;51.064;7.014;2022-07-09T08:29:15;102002.06;;;23.37;55.05
62059;BME280;48017;51.064;7.014;2022-07-09T08:31:40;101988.84;;;24.03;53.02
62059;BME280;48017;51.064;7.014;2022-07-09T08:34:06;101985.81;;;23.37;54.32
62059;BME280;48017;51.064;7.014;2022-07-09T08:36:31;101987.88;;;23.12;54.52
62059;BME280;48017;51.064;7.014;2022-07-09T08:38:56;101989.31;;;23.46;53.35
62059;BME280;48017;51.064;7.014;2022-07-09T08:41:23;101979.84;;;23.19;54.26
62059;BME280;48017;51.064;7.014;2022-07-09T08:43:50;101989.69;;;22.81;55.14
62059;BME280;48017;51.064;7.014;2022-07-09T08:46:19;101988.00;;;23.42;53.33
62059;BME280;48017;51.064;7.014;2022-07-09T08:48:45;101981.19;;;24.06;51.33
62059;BME280;48017;51.064;7.014;2022-07-09T08:51:11;101976.88;;;23.97;51.25
62059;BME280;48017;51.064;7.014;2022-07-09T08:53:44;101979.56;;;23.14;53.03
62059;BME280;48017;51.064;7.014;2022-07-09T08:56:10;101978.75;;;23.05;53.30
62059;BME280;48017;51.064;7.014;2022-07-09T08:58:37;101976.25;;;23.04;53.03
62059;BME280;48017;51.064;7.014;2022-07-09T09:01:03;101969.06;;;23.65;52.21
62059;BME280;48017;51.064;7.014;2022-07-09T09:03:29;101966.47;;;23.71;51.42
62059;BME280;48017;51.064;7.014;2022-07-09T09:06:06;101965.63;;;23.25;52.05
62059;BME280;48017;51.064;7.014;2022-07-09T09:08:42;101968.63;;;23.53;50.67
62059;BME280;48017;51.064;7.014;2022-07-09T09:11:20;101950.84;;;24.40;48.60
62059;BME280;48017;51.064;7.014;2022-07-09T09:13:47;101941.22;;;24.23;48.84
62059;BME280;48017;51.064;7.014;2022-07-09T09:16:14;101941.47;;;24.58;48.20
62059;BME280;48017;51.064;7.014;2022-07-09T09:21:08;101944.38;;;24.56;48.54
62059;BME280;48017;51.064;7.014;2022-07-09T09:28:51;101930.91;;;24.48;47.18
62059;BME280;48017;51.064;7.014;2022-07-09T09:31:23;101931.91;;;24.62;47.72
62059;BME280;48017;51.064;7.014;2022-07-09T09:33:54;101921.59;;;24.87;46.19
62059;BME280;48017;51.064;7.014;2022-07-09T09:36:31;101924.97;;;25.10;45.31
62059;BME280;48017;51.064;7.014;2022-07-09T09:39:28;101927.44;;;24.90;46.33
62059;BME280;48017;51.064;7.014;2022-07-09T09:42:02;101923.81;;;23.73;48.92
62059;BME280;48017;51.064;7.014;2022-07-09T09:44:29;101921.84;;;23.82;49.46
62059;BME280;48017;51.064;7.014;2022-07-09T09:46:56;101920.81;;;23.45;48.65
62059;BME280;48017;51.064;7.014;2022-07-09T09:49:22;101917.28;;;22.99;49.30
62059;BME280;48017;51.064;7.014;2022-07-09T09:52:00;101917.53;;;23.88;47.73
62059;BME280;48017;51.064;7.014;2022-07-09T09:54:27;101912.13;;;23.73;47.68
62059;BME280;48017;51.064;7.014;2022-07-09T09:56:53;101907.38;;;23.75;47.87
62059;BME280;48017;51.064;7.014;2022-07-09T09:59:19;101916.63;;;24.54;47.03
62059;BME280;48017;51.064;7.014;2022-07-09T10:01:45;101905.09;;;24.88;45.77
62059;BME280;48017;51.064;7.014;2022-07-09T10:04:12;101911.81;;;24.92;46.03
62059;BME280;48017;51.064;7.014;2022-07-09T10:06:39;101909.53;;;24.53;45.18
62059;BME280;48017;51.064;7.014;2022-07-09T10:09:06;101907.66;;;24.54;45.76
62059;BME280;48017;51.064;7.014;2022-07-09T10:11:58;101892.41;;;24.53;46.17
62059;BME280;48017;51.064;7.014;2022-07-09T10:16:52;101894.59;;;24.13;46.86
62059;BME280;48017;51.064;7.014;2022-07-09T10:19:25;101895.22;;;23.85;47.67
62059;BME280;48017;51.064;7.014;2022-07-09T10:21:54;101897.84;;;23.79;48.11
62059;BME280;48017;51.064;7.014;2022-07-09T10:26:49;101883.06;;;24.11;47.25
62059;BME280;48017;51.064;7.014;2022-07-09T10:29:57;101883.25;;;24.54;46.54
62059;BME280;48017;51.064;7.014;2022-07-09T10:32:29;101880.31;;;25.13;44.37
62059;BME280;48017;51.064;7.014;2022-07-09T10:35:05;101876.09;;;25.04;44.89
62059;BME280;48017;51.064;7.014;2022-07-09T10:37:44;101880.13;;;25.36;44.80
62059;BME280;48017;51.064;7.014;2022-07-09T10:40:17;101878.44;;;25.35;44.04
62059;BME280;48017;51.064;7.014;2022-07-09T10:43:00;101878.22;;;24.72;45.84
62059;BME280;48017;51.064;7.014;2022-07-09T10:45:38;101862.88;;;25.00;45.35
62059;BME280;48017;51.064;7.014;2022-07-09T10:48:06;101865.25;;;25.04;45.08
62059;BME280;48017;51.064;7.014;2022-07-09T10:50:35;101866.41;;;24.58;46.11
62059;BME280;48017;51.064;7.014;2022-07-09T10:53:01;101857.31;;;24.00;47.09
62059;BME280;48017;51.064;7.014;2022-07-09T10:55:30;101857.69;;;23.82;47.27
62059;BME280;48017;51.064;7.014;2022-07-09T10:57:56;101851.31;;;24.20;47.91
62059;BME280;48017;51.064;7.014;2022-07-09T11:00:26;101855.53;;;24.22;47.48
62059;BME280;48017;51.064;7.014;2022-07-09T11:03:03;101852.09;;;24.64;46.62
62059;BME280;48017;51.064;7.014;2022-07-09T11:05:31;101849.16;;;24.45;46.98
62059;BME280;48017;51.064;7.014;2022-07-09T11:08:04;101851.25;;;24.13;47.75
62059;BME280;48017;51.064;7.014;2022-07-09T11:10:34;101841.84;;;24.30;47.69
62059;BME280;48017;51.064;7.014;2022-07-09T11:13:00;101845.16;;;24.11;47.72
62059;BME280;48017;51.064;7.014;2022-07-09T11:15:28;101844.31;;;24.25;47.93
62059;BME280;48017;51.064;7.014;2022-07-09T11:20:31;101840.75;;;24.39;47.75
62059;BME280;48017;51.064;7.014;2022-07-09T11:22:56;101841.44;;;23.82;48.37
62059;BME280;48017;51.064;7.014;2022-07-09T11:25:23;101831.25;;;24.14;48.46
62059;BME280;48017;51.064;7.014;2022-07-09T11:27:59;101836.91;;;24.70;47.50
62059;BME280;48017;51.064;7.014;2022-07-09T11:30:26;101838.72;;;24.84;46.77
62059;BME280;48017;51.064;7.014;2022-07-09T11:32:52;101832.50;;;24.69;46.52
62059;BME280;48017;51.064;7.014;2022-07-09T11:35:34;101823.53;;;24.90;45.68
62059;BME280;48017;51.064;7.014;2022-07-09T11:38:02;101825.28;;;24.76;45.67
62059;BME280;48017;51.064;7.014;2022-07-09T11:40:29;101836.78;;;24.57;46.15
62059;BME280;48017;51.064;7.014;2022-07-09T11:42:54;101827.66;;;24.43;46.27
62059;BME280;48017;51.064;7.014;2022-07-09T11:45:25;101831.22;;;24.65;46.35
62059;BME280;48017;51.064;7.014;2022-07-09T11:48:08;101822.38;;;24.99;46.05
62059;BME280;48017;51.064;7.014;2022-07-09T11:50:41;101823.72;;;24.88;45.54
62059;BME280;48017;51.064;7.014;2022-07-09T11:53:23;101811.56;;;25.27;45.21
62059;BME280;48017;51.064;7.014;2022-07-09T11:58:24;101799.25;;;25.59;45.13
62059;BME280;48017;51.064;7.014;2022-07-09T12:00:49;101799.66;;;25.56;44.82
62059;BME280;48017;51.064;7.014;2022-07-09T12:03:23;101793.34;;;25.21;45.57
62059;BME280;48017;51.064;7.014;2022-07-09T12:05:50;101791.63;;;24.92;45.86
62059;BME280;48017;51.064;7.014;2022-07-09T12:08:28;101790.00;;;24.97;46.12
62059;BME280;48017;51.064;7.014;2022-07-09T12:10:55;101780.69;;;25.28;45.60
62059;BME280;48017;51.064;7.014;2022-07-09T12:13:20;101770.88;;;25.34;44.63
62059;BME280;48017;51.064;7.014;2022-07-09T12:15:46;101768.75;;;25.64;43.86
62059;BME280;48017;51.064;7.014;2022-07-09T12:18:11;101766.13;;;25.70;43.90
62059;BME280;48017;51.064;7.014;2022-07-09T12:20:36;101770.97;;;25.75;43.60
62059;BME280;48017;51.064;7.014;2022-07-09T12:23:02;101769.19;;;25.61;44.34
62059;BME280;48017;51.064;7.014;2022-07-09T12:25:27;101760.16;;;25.88;43.75
62059;BME280;48017;51.064;7.014;2022-07-09T12:27:52;101770.00;;;25.61;43.62
62059;BME280;48017;51.064;7.014;2022-07-09T12:30:18;101749.41;;;25.04;45.09
62059;BME280;48017;51.064;7.014;2022-07-09T12:32:45;101752.16;;;25.11;44.89
62059;BME280;48017;51.064;7.014;2022-07-09T12:35:11;101756.81;;;24.95;45.07
62059;BME280;48017;51.064;7.014;2022-07-09T12:37:38;101749.19;;;24.56;44.98
62059;BME280;48017;51.064;7.014;2022-07-09T12:40:05;101749.56;;;24.53;46.05
62059;BME280;48017;51.064;7.014;2022-07-09T12:42:31;101750.84;;;24.79;45.22
62059;BME280;48017;51.064;7.014;2022-07-09T12:44:56;101751.88;;;24.78;45.46
62059;BME280;48017;51.064;7.014;2022-07-09T12:47:22;101748.59;;;25.38;44.73
62059;BME280;48017;51.064;7.014;2022-07-09T12:49:47;101737.41;;;25.54;44.22
62059;BME280;48017;51.064;7.014;2022-07-09T12:52:12;101739.63;;;25.79;44.71
62059;BME280;48017;51.064;7.014;2022-07-09T12:54:38;101728.81;;;25.86;43.61
62059;BME280;48017;51.064;7.014;2022-07-09T12:57:04;101721.91;;;25.90;43.67
62059;BME280;48017;51.064;7.014;2022-07-09T12:59:29;101724.22;;;25.93;44.11
62059;BME280;48017;51.064;7.014;2022-07-09T13:01:55;101718.75;;;25.79;44.31
62059;BME280;48017;51.064;7.014;2022-07-09T13:04:20;101723.19;;;25.18;44.51
62059;BME280;48017;51.064;7.014;2022-07-09T13:06:46;101718.56;;;25.12;45.41